Big Bear Station Historical Data
Daily Summary for October 27, 2017 Units:  English    Metric   Both
« Previous Day
Next Day »
Daily Weekly Monthly Yearly Custom
  High: Low: Average:
Temperature: 73.4 °F 35.4 °F 50.2 °F
Dew Point: 34.9 °F 22.6 °F 27.9 °F
Humidity: 82 % 15 % 48 %
Wind Speed: 4.2 mph 0.0 mph 1 mph
Wind Gust: -999.0 mph - -
Wind:- - West
Pressure: 23.63 in 23.57 in -
Precipitation: 0.00 in    
Historical Graphs
 
 
Tabular Data for October 27, 2017
Time Temperature Dew Point Pressure Wind Wind Speed Wind Gust Humidity Rainfall Rate (Hourly)
00:02 40.5 °F 25.2 °F 23.60 in Calm   -999.0 mph 54 % 0 in
00:17 40.1 °F 25.7 °F 23.60 in Calm   -999.0 mph 56 % 0 in
00:33 39.9 °F 26.3 °F 23.60 in Calm   -999.0 mph 58 % 0 in
00:48 39.9 °F 25.5 °F 23.60 in Calm   -999.0 mph 56 % 0 in
01:03 39.2 °F 25.7 °F 23.61 in Calm   -999.0 mph 58 % 0 in
01:18 38.8 °F 24.0 °F 23.61 in Calm   -999.0 mph 55 % 0 in
01:34 38.8 °F 26.5 °F 23.61 in Calm   -999.0 mph 61 % 0 in
01:49 38.7 °F 26.8 °F 23.61 in Calm   -999.0 mph 62 % 0 in
02:04 38.1 °F 26.2 °F 23.61 in Calm   -999.0 mph 62 % 0 in
02:19 38.1 °F 26.2 °F 23.61 in Calm   -999.0 mph 62 % 0 in
02:34 37.9 °F 28.3 °F 23.61 in Calm   -999.0 mph 68 % 0 in
02:50 37.8 °F 29.6 °F 23.61 in Calm   -999.0 mph 72 % 0 in
03:05 37.8 °F 30.9 °F 23.61 in Calm   -999.0 mph 76 % 0 in
03:20 37.2 °F 30.7 °F 23.60 in Calm   -999.0 mph 77 % 0 in
03:35 37.2 °F 29.7 °F 23.60 in Calm   -999.0 mph 74 % 0 in
03:50 37.0 °F 30.5 °F 23.60 in Calm   -999.0 mph 77 % 0 in
04:06 36.7 °F 31.7 °F 23.60 in Calm   -999.0 mph 82 % 0 in
04:21 37.0 °F 31.7 °F 23.61 in Calm   -999.0 mph 81 % 0 in
04:36 36.7 °F 31.4 °F 23.60 in Calm   -999.0 mph 81 % 0 in
04:51 36.3 °F 30.4 °F 23.61 in Calm   -999.0 mph 79 % 0 in
05:06 36.1 °F 29.9 °F 23.61 in Calm   -999.0 mph 78 % 0 in
05:22 36.0 °F 30.1 °F 23.61 in Calm   -999.0 mph 79 % 0 in
05:37 36.1 °F 30.5 °F 23.61 in Calm   -999.0 mph 80 % 0 in
05:52 36.0 °F 30.7 °F 23.61 in Calm   -999.0 mph 81 % 0 in
06:07 35.4 °F 30.2 °F 23.61 in Calm   -999.0 mph 81 % 0 in
06:23 35.4 °F 28.9 °F 23.61 in Calm   -999.0 mph 77 % 0 in
06:38 35.6 °F 30.0 °F 23.61 in Calm   -999.0 mph 80 % 0 in
06:53 35.6 °F 29.4 °F 23.61 in Calm   -999.0 mph 78 % 0 in
07:08 36.0 °F 28.2 °F 23.61 in Calm   -999.0 mph 73 % 0 in
07:23 35.6 °F 28.8 °F 23.61 in Calm   -999.0 mph 76 % 0 in
07:39 36.1 °F 29.6 °F 23.62 in Calm   -999.0 mph 77 % 0 in
07:54 36.7 °F 30.2 °F 23.62 in Calm   -999.0 mph 77 % 0 in
08:09 36.9 °F 30.0 °F 23.62 in Calm   -999.0 mph 76 % 0 in
08:24 38.5 °F 32.2 °F 23.63 in Calm   -999.0 mph 78 % 0 in
08:39 40.5 °F 32.2 °F 23.63 in Calm   -999.0 mph 72 % 0 in
08:55 40.1 °F 32.1 °F 23.63 in Calm   -999.0 mph 73 % 0 in
09:10 42.6 °F 33.5 °F 23.63 in Calm   -999.0 mph 70 % 0 in
09:25 43.0 °F 34.9 °F 23.63 in Calm   -999.0 mph 73 % 0 in
09:40 45.0 °F 33.6 °F 23.63 in Calm   -999.0 mph 64 % 0 in
09:55 46.9 °F 29.2 °F 23.63 in Calm   -999.0 mph 50 % 0 in
10:11 49.6 °F 32.7 °F 23.63 in Calm   -999.0 mph 52 % 0 in
10:26 53.2 °F 31.8 °F 23.63 in Calm   -999.0 mph 44 % 0 in
10:41 60.4 °F 31.2 °F 23.63 in North 1.1 mph -999.0 mph 33 % 0 in
10:57 64.8 °F 27.1 °F 23.63 in Calm   -999.0 mph 24 % 0 in
11:12 66.4 °F 27.5 °F 23.63 in Calm   -999.0 mph 23 % 0 in
11:27 67.8 °F 24.0 °F 23.62 in NW 1.1 mph -999.0 mph 19 % 0 in
11:42 69.3 °F 24.0 °F 23.62 in Calm   -999.0 mph 18 % 0 in
11:57 70.5 °F 23.6 °F 23.61 in North 3.2 mph -999.0 mph 17 % 0 in
12:13 71.2 °F 24.1 °F 23.61 in NNW 2.2 mph -999.0 mph 17 % 0 in
12:28 71.8 °F 23.2 °F 23.60 in SW 2.2 mph -999.0 mph 16 % 0 in
12:43 73.0 °F 22.6 °F 23.60 in ENE 2.2 mph -999.0 mph 15 % 0 in
12:58 73.4 °F 22.9 °F 23.59 in West 2.7 mph -999.0 mph 15 % 0 in
13:14 73.0 °F 27.0 °F 23.59 in NW 3.2 mph -999.0 mph 18 % 0 in
13:29 72.3 °F 29.0 °F 23.58 in NW 3.2 mph -999.0 mph 20 % 0 in
13:44 72.5 °F 29.1 °F 23.58 in West 4.2 mph -999.0 mph 20 % 0 in
14:00 71.8 °F 27.3 °F 23.57 in WNW 3.2 mph -999.0 mph 19 % 0 in
14:15 70.3 °F 33.8 °F 23.57 in NNW 4.2 mph -999.0 mph 26 % 0 in
14:31 69.1 °F 27.5 °F 23.57 in NW 4.2 mph -999.0 mph 21 % 0 in
14:46 69.1 °F 26.3 °F 23.57 in NW 3.7 mph -999.0 mph 20 % 0 in
15:01 69.1 °F 27.5 °F 23.57 in NE 2.7 mph -999.0 mph 21 % 0 in
15:17 68.2 °F 30.0 °F 23.57 in NNW 3.7 mph -999.0 mph 24 % 0 in
15:32 67.3 °F 34.8 °F 23.57 in NNW 3.2 mph -999.0 mph 30 % 0 in
15:47 67.3 °F 30.3 °F 23.57 in NW 3.7 mph -999.0 mph 25 % 0 in
16:02 66.6 °F 26.6 °F 23.58 in NW 2.7 mph -999.0 mph 22 % 0 in
16:17 66.2 °F 26.2 °F 23.57 in NW 3.7 mph -999.0 mph 22 % 0 in
16:33 65.7 °F 29.9 °F 23.57 in NNW 3.2 mph -999.0 mph 26 % 0 in
16:48 65.3 °F 29.5 °F 23.57 in NW 4.2 mph -999.0 mph 26 % 0 in
17:03 64.9 °F 27.2 °F 23.57 in NNW 4.2 mph -999.0 mph 24 % 0 in
17:18 64.0 °F 27.5 °F 23.57 in NNW 3.7 mph -999.0 mph 25 % 0 in
17:34 62.6 °F 29.9 °F 23.57 in NNW 2.7 mph -999.0 mph 29 % 0 in
17:49 61.3 °F 28.8 °F 23.57 in Calm   -999.0 mph 29 % 0 in
18:05 58.8 °F 24.0 °F 23.58 in SSW 1.7 mph -999.0 mph 26 % 0 in
18:20 58.1 °F 24.3 °F 23.58 in South 2.2 mph -999.0 mph 27 % 0 in
18:35 56.8 °F 24.0 °F 23.58 in Calm   -999.0 mph 28 % 0 in
18:50 55.9 °F 23.2 °F 23.58 in Calm   -999.0 mph 28 % 0 in
19:05 54.3 °F 24.3 °F 23.58 in Calm   -999.0 mph 31 % 0 in
19:21 52.9 °F 23.1 °F 23.58 in South 1.7 mph -999.0 mph 31 % 0 in
19:36 51.6 °F 24.1 °F 23.58 in SSW 2.2 mph -999.0 mph 34 % 0 in
19:51 50.5 °F 24.5 °F 23.58 in Calm   -999.0 mph 36 % 0 in
20:07 49.1 °F 24.6 °F 23.58 in SSW 1.7 mph -999.0 mph 38 % 0 in
20:22 48.2 °F 25.6 °F 23.58 in Calm   -999.0 mph 41 % 0 in
20:38 47.5 °F 25.5 °F 23.58 in Calm   -999.0 mph 42 % 0 in
20:53 46.8 °F 24.9 °F 23.58 in Calm   -999.0 mph 42 % 0 in
21:08 45.9 °F 24.1 °F 23.59 in Calm   -999.0 mph 42 % 0 in
21:23 45.0 °F 24.4 °F 23.59 in Calm   -999.0 mph 44 % 0 in
21:38 44.2 °F 25.7 °F 23.59 in Calm   -999.0 mph 48 % 0 in
21:54 43.5 °F 26.1 °F 23.59 in Calm   -999.0 mph 50 % 0 in
22:09 42.8 °F 27.7 °F 23.59 in Calm   -999.0 mph 55 % 0 in
22:24 42.4 °F 27.8 °F 23.59 in SSW 1.1 mph -999.0 mph 56 % 0 in
22:54 42.1 °F 25.7 °F 23.59 in Calm   -999.0 mph 52 % 0 in
23:10 42.6 °F 26.2 °F 23.59 in South 1.7 mph -999.0 mph 52 % 0 in
23:25 42.4 °F 26.9 °F 23.58 in SSE 2.2 mph -999.0 mph 54 % 0 in
23:55 42.3 °F 26.4 °F 23.58 in SSE 2.2 mph -999.0 mph 53 % 0 in
Big Bear CA Weather
Compliments of Weather Underground - 1.5 mb